sensor_id;sensor_type;location;lat;lon;timestamp;pressure;altitude;pressure_sealevel;temperature;humidity
79453;BME280;68899;52.116;5.404;2024-03-02T00:01:19;99823.63;;;8.03;71.31
79453;BME280;68899;52.116;5.404;2024-03-02T00:03:46;99832.22;;;8.05;71.07
79453;BME280;68899;52.116;5.404;2024-03-02T00:06:12;99819.97;;;8.05;71.25
79453;BME280;68899;52.116;5.404;2024-03-02T00:08:39;99833.91;;;8.06;71.52
79453;BME280;68899;52.116;5.404;2024-03-02T00:11:06;99822.59;;;8.05;71.51
79453;BME280;68899;52.116;5.404;2024-03-02T00:13:33;99826.75;;;8.08;71.50
79453;BME280;68899;52.116;5.404;2024-03-02T00:16:01;99832.88;;;8.08;71.16
79453;BME280;68899;52.116;5.404;2024-03-02T00:18:35;99839.78;;;8.09;71.24
79453;BME280;68899;52.116;5.404;2024-03-02T00:21:03;99845.75;;;8.11;71.38
79453;BME280;68899;52.116;5.404;2024-03-02T00:23:30;99869.22;;;8.13;71.15
79453;BME280;68899;52.116;5.404;2024-03-02T00:25:58;99867.44;;;8.13;71.50
79453;BME280;68899;52.116;5.404;2024-03-02T00:28:29;99870.91;;;8.14;71.20
79453;BME280;68899;52.116;5.404;2024-03-02T00:31:07;99877.81;;;8.15;71.42
79453;BME280;68899;52.116;5.404;2024-03-02T00:33:36;99890.06;;;8.14;71.37
79453;BME280;68899;52.116;5.404;2024-03-02T00:36:04;99902.34;;;8.14;71.70
79453;BME280;68899;52.116;5.404;2024-03-02T00:38:31;99905.91;;;8.13;71.45
79453;BME280;68899;52.116;5.404;2024-03-02T00:40:59;99912.91;;;8.12;72.00
79453;BME280;68899;52.116;5.404;2024-03-02T00:43:58;99925.28;;;8.10;72.53
79453;BME280;68899;52.116;5.404;2024-03-02T00:46:31;99935.94;;;8.07;73.24
79453;BME280;68899;52.116;5.404;2024-03-02T00:49:02;99929.97;;;8.05;73.61
79453;BME280;68899;52.116;5.404;2024-03-02T00:51:30;99925.78;;;8.03;74.04
79453;BME280;68899;52.116;5.404;2024-03-02T00:54:03;99929.44;;;8.00;74.03
79453;BME280;68899;52.116;5.404;2024-03-02T00:56:32;99929.75;;;7.96;74.17
79453;BME280;68899;52.116;5.404;2024-03-02T00:58:59;99938.75;;;7.91;74.45
79453;BME280;68899;52.116;5.404;2024-03-02T01:01:25;99944.16;;;7.88;75.11
79453;BME280;68899;52.116;5.404;2024-03-02T01:03:52;99947.84;;;7.86;75.40
79453;BME280;68899;52.116;5.404;2024-03-02T01:06:19;99947.19;;;7.82;76.37
79453;BME280;68899;52.116;5.404;2024-03-02T01:08:47;99948.09;;;7.81;76.06
79453;BME280;68899;52.116;5.404;2024-03-02T01:11:18;99952.63;;;7.79;76.73
79453;BME280;68899;52.116;5.404;2024-03-02T01:13:45;99954.59;;;7.76;77.06
79453;BME280;68899;52.116;5.404;2024-03-02T01:16:12;99947.78;;;7.73;77.23
79453;BME280;68899;52.116;5.404;2024-03-02T01:18:39;99945.19;;;7.73;77.32
79453;BME280;68899;52.116;5.404;2024-03-02T01:21:06;99940.31;;;7.67;77.50
79453;BME280;68899;52.116;5.404;2024-03-02T01:23:32;99945.72;;;7.64;78.15
79453;BME280;68899;52.116;5.404;2024-03-02T01:25:59;99948.56;;;7.61;78.66
79453;BME280;68899;52.116;5.404;2024-03-02T01:28:26;99953.16;;;7.57;78.93
79453;BME280;68899;52.116;5.404;2024-03-02T01:30:53;99964.00;;;7.51;78.96
79453;BME280;68899;52.116;5.404;2024-03-02T01:33:20;99953.28;;;7.42;78.67
79453;BME280;68899;52.116;5.404;2024-03-02T01:35:47;99951.59;;;7.41;79.21
79453;BME280;68899;52.116;5.404;2024-03-02T01:38:13;99955.31;;;7.36;79.04
79453;BME280;68899;52.116;5.404;2024-03-02T01:40:40;99959.81;;;7.34;79.30
79453;BME280;68899;52.116;5.404;2024-03-02T01:43:07;99958.03;;;7.35;79.08
79453;BME280;68899;52.116;5.404;2024-03-02T01:45:34;99959.09;;;7.32;79.46
79453;BME280;68899;52.116;5.404;2024-03-02T01:48:04;99967.03;;;7.31;79.01
79453;BME280;68899;52.116;5.404;2024-03-02T01:50:34;99969.66;;;7.31;79.00
79453;BME280;68899;52.116;5.404;2024-03-02T01:53:01;99971.44;;;7.30;79.34
79453;BME280;68899;52.116;5.404;2024-03-02T01:55:29;99962.06;;;7.26;79.84
79453;BME280;68899;52.116;5.404;2024-03-02T01:57:57;99958.63;;;7.26;79.31
79453;BME280;68899;52.116;5.404;2024-03-02T02:00:25;99964.78;;;7.25;79.92
79453;BME280;68899;52.116;5.404;2024-03-02T02:02:52;99967.50;;;7.23;79.93
79453;BME280;68899;52.116;5.404;2024-03-02T02:05:19;99966.66;;;7.23;79.91
79453;BME280;68899;52.116;5.404;2024-03-02T02:07:46;99955.25;;;7.24;79.79
79453;BME280;68899;52.116;5.404;2024-03-02T02:10:13;99958.81;;;7.23;80.03
79453;BME280;68899;52.116;5.404;2024-03-02T02:12:39;99970.38;;;7.19;80.48
79453;BME280;68899;52.116;5.404;2024-03-02T02:15:25;99980.00;;;7.18;80.79
79453;BME280;68899;52.116;5.404;2024-03-02T02:17:54;99975.63;;;7.19;80.85
79453;BME280;68899;52.116;5.404;2024-03-02T02:20:21;99965.34;;;7.16;80.66
79453;BME280;68899;52.116;5.404;2024-03-02T02:25:29;99974.31;;;7.12;81.43
79453;BME280;68899;52.116;5.404;2024-03-02T02:27:56;99962.28;;;7.09;81.57
79453;BME280;68899;52.116;5.404;2024-03-02T02:30:25;99963.31;;;7.06;81.89
79453;BME280;68899;52.116;5.404;2024-03-02T02:32:52;99956.56;;;7.02;82.23
79453;BME280;68899;52.116;5.404;2024-03-02T02:35:21;99952.47;;;6.98;82.70
79453;BME280;68899;52.116;5.404;2024-03-02T02:37:49;99958.75;;;6.96;82.96
79453;BME280;68899;52.116;5.404;2024-03-02T02:40:16;99969.25;;;6.94;83.17
79453;BME280;68899;52.116;5.404;2024-03-02T02:42:45;99978.72;;;6.97;83.18
79453;BME280;68899;52.116;5.404;2024-03-02T02:45:11;99972.81;;;6.93;83.17
79453;BME280;68899;52.116;5.404;2024-03-02T02:47:41;99961.34;;;6.96;83.31
79453;BME280;68899;52.116;5.404;2024-03-02T02:50:08;99970.28;;;6.92;83.14
79453;BME280;68899;52.116;5.404;2024-03-02T02:52:37;99962.56;;;6.90;83.38
79453;BME280;68899;52.116;5.404;2024-03-02T02:55:11;99964.44;;;6.88;83.16
79453;BME280;68899;52.116;5.404;2024-03-02T02:57:40;99971.50;;;6.86;83.16
79453;BME280;68899;52.116;5.404;2024-03-02T03:02:37;99980.28;;;6.85;83.50
79453;BME280;68899;52.116;5.404;2024-03-02T03:05:05;99983.09;;;6.82;82.92
79453;BME280;68899;52.116;5.404;2024-03-02T03:07:32;99969.38;;;6.78;83.41
79453;BME280;68899;52.116;5.404;2024-03-02T03:10:01;99964.03;;;6.80;83.49
79453;BME280;68899;52.116;5.404;2024-03-02T03:12:28;99978.31;;;6.74;83.13
79453;BME280;68899;52.116;5.404;2024-03-02T03:14:54;99973.38;;;6.70;83.32
79453;BME280;68899;52.116;5.404;2024-03-02T03:17:21;99969.03;;;6.69;83.86
79453;BME280;68899;52.116;5.404;2024-03-02T03:19:49;99967.47;;;6.66;83.72
79453;BME280;68899;52.116;5.404;2024-03-02T03:22:16;99970.28;;;6.63;83.02
79453;BME280;68899;52.116;5.404;2024-03-02T03:24:43;99975.59;;;6.62;83.46
79453;BME280;68899;52.116;5.404;2024-03-02T03:27:10;99977.44;;;6.60;83.01
79453;BME280;68899;52.116;5.404;2024-03-02T03:29:37;99984.44;;;6.59;83.15
79453;BME280;68899;52.116;5.404;2024-03-02T03:32:04;99982.84;;;6.57;82.62
79453;BME280;68899;52.116;5.404;2024-03-02T03:34:33;99992.56;;;6.55;83.17
79453;BME280;68899;52.116;5.404;2024-03-02T03:37:00;99991.81;;;6.53;82.81
79453;BME280;68899;52.116;5.404;2024-03-02T03:39:26;99985.75;;;6.52;82.50
79453;BME280;68899;52.116;5.404;2024-03-02T03:41:53;99988.38;;;6.52;82.43
79453;BME280;68899;52.116;5.404;2024-03-02T03:44:19;99990.78;;;6.55;82.96
79453;BME280;68899;52.116;5.404;2024-03-02T03:46:46;99991.63;;;6.56;82.86
79453;BME280;68899;52.116;5.404;2024-03-02T03:49:12;99994.25;;;6.56;82.52
79453;BME280;68899;52.116;5.404;2024-03-02T03:51:39;99999.38;;;6.57;82.22
79453;BME280;68899;52.116;5.404;2024-03-02T03:54:05;100004.59;;;6.57;81.83
79453;BME280;68899;52.116;5.404;2024-03-02T03:56:32;99999.38;;;6.57;82.21
79453;BME280;68899;52.116;5.404;2024-03-02T03:58:59;99990.78;;;6.55;82.16
79453;BME280;68899;52.116;5.404;2024-03-02T04:01:26;99996.75;;;6.57;82.53
79453;BME280;68899;52.116;5.404;2024-03-02T04:03:52;99988.06;;;6.57;82.23
79453;BME280;68899;52.116;5.404;2024-03-02T04:06:19;99991.53;;;6.57;81.96
79453;BME280;68899;52.116;5.404;2024-03-02T04:08:45;100006.38;;;6.57;82.03
79453;BME280;68899;52.116;5.404;2024-03-02T04:11:12;100001.88;;;6.59;82.40
79453;BME280;68899;52.116;5.404;2024-03-02T04:13:38;100007.03;;;6.60;82.63
79453;BME280;68899;52.116;5.404;2024-03-02T04:16:05;100014.78;;;6.62;82.57
79453;BME280;68899;52.116;5.404;2024-03-02T04:18:31;100008.72;;;6.61;82.31
79453;BME280;68899;52.116;5.404;2024-03-02T04:21:01;100012.25;;;6.60;82.52
79453;BME280;68899;52.116;5.404;2024-03-02T04:23:28;100015.72;;;6.61;82.53
79453;BME280;68899;52.116;5.404;2024-03-02T04:25:54;100016.56;;;6.61;82.29
79453;BME280;68899;52.116;5.404;2024-03-02T04:28:21;100017.56;;;6.59;81.75
79453;BME280;68899;52.116;5.404;2024-03-02T04:30:47;100014.78;;;6.62;82.12
79453;BME280;68899;52.116;5.404;2024-03-02T04:33:14;100011.25;;;6.63;82.10
79453;BME280;68899;52.116;5.404;2024-03-02T04:35:40;100017.41;;;6.62;81.82
79453;BME280;68899;52.116;5.404;2024-03-02T04:38:07;100017.22;;;6.65;82.01
79453;BME280;68899;52.116;5.404;2024-03-02T04:40:33;100016.38;;;6.64;81.76
79453;BME280;68899;52.116;5.404;2024-03-02T04:42:59;100023.38;;;6.64;81.48
79453;BME280;68899;52.116;5.404;2024-03-02T04:45:26;100032.06;;;6.64;82.30
79453;BME280;68899;52.116;5.404;2024-03-02T04:47:53;100028.59;;;6.64;81.87
79453;BME280;68899;52.116;5.404;2024-03-02T04:50:19;100032.16;;;6.63;81.99
79453;BME280;68899;52.116;5.404;2024-03-02T04:52:46;100034.03;;;6.61;81.74
79453;BME280;68899;52.116;5.404;2024-03-02T04:55:12;100041.00;;;6.60;81.64
79453;BME280;68899;52.116;5.404;2024-03-02T04:57:42;100046.22;;;6.60;81.76
79453;BME280;68899;52.116;5.404;2024-03-02T05:00:10;100047.09;;;6.61;81.24
79453;BME280;68899;52.116;5.404;2024-03-02T05:02:36;100046.22;;;6.60;81.65
79453;BME280;68899;52.116;5.404;2024-03-02T05:05:03;100044.63;;;6.58;81.06
79453;BME280;68899;52.116;5.404;2024-03-02T05:07:30;100041.91;;;6.59;81.18
79453;BME280;68899;52.116;5.404;2024-03-02T05:09:57;100043.78;;;6.57;81.29
79453;BME280;68899;52.116;5.404;2024-03-02T05:12:23;100049.03;;;6.57;80.96
79453;BME280;68899;52.116;5.404;2024-03-02T05:15:02;100055.84;;;6.60;81.13
79453;BME280;68899;52.116;5.404;2024-03-02T05:17:29;100057.53;;;6.61;80.64
79453;BME280;68899;52.116;5.404;2024-03-02T05:19:55;100060.16;;;6.61;80.25
79453;BME280;68899;52.116;5.404;2024-03-02T05:22:22;100061.06;;;6.60;80.78
79453;BME280;68899;52.116;5.404;2024-03-02T05:24:48;100055.00;;;6.59;80.21
79453;BME280;68899;52.116;5.404;2024-03-02T05:27:15;100053.31;;;6.58;80.35
79453;BME280;68899;52.116;5.404;2024-03-02T05:29:42;100054.06;;;6.60;80.35
79453;BME280;68899;52.116;5.404;2024-03-02T05:32:08;100058.44;;;6.60;79.84
79453;BME280;68899;52.116;5.404;2024-03-02T05:34:35;100055.84;;;6.60;79.46
79453;BME280;68899;52.116;5.404;2024-03-02T05:37:02;100059.47;;;6.57;79.62
79453;BME280;68899;52.116;5.404;2024-03-02T05:39:29;100066.47;;;6.57;79.17
79453;BME280;68899;52.116;5.404;2024-03-02T05:41:55;100051.81;;;6.54;79.16
79453;BME280;68899;52.116;5.404;2024-03-02T05:44:22;100050.13;;;6.53;79.01
79453;BME280;68899;52.116;5.404;2024-03-02T05:46:48;100055.47;;;6.51;78.97
79453;BME280;68899;52.116;5.404;2024-03-02T05:49:15;100058.41;;;6.45;78.52
79453;BME280;68899;52.116;5.404;2024-03-02T05:51:41;100053.34;;;6.42;77.97
79453;BME280;68899;52.116;5.404;2024-03-02T05:54:08;100069.78;;;6.44;77.85
79453;BME280;68899;52.116;5.404;2024-03-02T05:56:35;100056.81;;;6.43;78.08
79453;BME280;68899;52.116;5.404;2024-03-02T05:59:02;100072.50;;;6.43;77.88
79453;BME280;68899;52.116;5.404;2024-03-02T06:01:43;100061.28;;;6.41;78.15
79453;BME280;68899;52.116;5.404;2024-03-02T06:04:10;100073.69;;;6.37;77.38
79453;BME280;68899;52.116;5.404;2024-03-02T06:06:40;100078.81;;;6.39;77.76
79453;BME280;68899;52.116;5.404;2024-03-02T06:09:07;100078.81;;;6.39;77.71
79453;BME280;68899;52.116;5.404;2024-03-02T06:11:38;100084.03;;;6.39;77.70
79453;BME280;68899;52.116;5.404;2024-03-02T06:14:08;100088.41;;;6.38;77.96
79453;BME280;68899;52.116;5.404;2024-03-02T06:16:35;100082.34;;;6.38;78.11
79453;BME280;68899;52.116;5.404;2024-03-02T06:19:02;100089.34;;;6.37;78.11
79453;BME280;68899;52.116;5.404;2024-03-02T06:21:35;100091.03;;;6.38;78.12
79453;BME280;68899;52.116;5.404;2024-03-02T06:24:02;100096.25;;;6.38;78.54
79453;BME280;68899;52.116;5.404;2024-03-02T06:26:28;100098.97;;;6.37;78.75
79453;BME280;68899;52.116;5.404;2024-03-02T06:28:56;100098.03;;;6.38;78.69
79453;BME280;68899;52.116;5.404;2024-03-02T06:31:22;100098.03;;;6.38;78.88
79453;BME280;68899;52.116;5.404;2024-03-02T06:33:49;100106.72;;;6.38;78.73
79453;BME280;68899;52.116;5.404;2024-03-02T06:36:15;100115.38;;;6.39;79.14
79453;BME280;68899;52.116;5.404;2024-03-02T06:38:43;100117.16;;;6.38;79.10
79453;BME280;68899;52.116;5.404;2024-03-02T06:41:09;100111.75;;;6.41;78.99
79453;BME280;68899;52.116;5.404;2024-03-02T06:43:36;100123.03;;;6.42;78.99
79453;BME280;68899;52.116;5.404;2024-03-02T06:46:03;100121.28;;;6.42;79.27
79453;BME280;68899;52.116;5.404;2024-03-02T06:48:29;100121.22;;;6.44;78.83
79453;BME280;68899;52.116;5.404;2024-03-02T06:50:56;100119.44;;;6.44;78.59
79453;BME280;68899;52.116;5.404;2024-03-02T06:53:24;100121.03;;;6.47;79.24
79453;BME280;68899;52.116;5.404;2024-03-02T06:55:51;100121.22;;;6.44;78.80
79453;BME280;68899;52.116;5.404;2024-03-02T06:58:18;100116.00;;;6.44;78.53
79453;BME280;68899;52.116;5.404;2024-03-02T07:00:44;100121.13;;;6.45;78.83
79453;BME280;68899;52.116;5.404;2024-03-02T07:03:11;100116.66;;;6.47;78.10
79453;BME280;68899;52.116;5.404;2024-03-02T07:05:38;100114.78;;;6.49;78.31
79453;BME280;68899;52.116;5.404;2024-03-02T07:08:05;100116.47;;;6.50;78.45
79453;BME280;68899;52.116;5.404;2024-03-02T07:10:32;100112.06;;;6.51;78.62
79453;BME280;68899;52.116;5.404;2024-03-02T07:12:59;100122.53;;;6.51;78.64
79453;BME280;68899;52.116;5.404;2024-03-02T07:15:26;100116.22;;;6.55;78.67
79453;BME280;68899;52.116;5.404;2024-03-02T07:18:11;100128.25;;;6.58;78.48
79453;BME280;68899;52.116;5.404;2024-03-02T07:20:38;100121.94;;;6.62;78.44
79453;BME280;68899;52.116;5.404;2024-03-02T07:23:05;100120.91;;;6.64;78.27
79453;BME280;68899;52.116;5.404;2024-03-02T07:25:35;100120.91;;;6.64;77.90
79453;BME280;68899;52.116;5.404;2024-03-02T07:28:04;100132.13;;;6.66;77.54
79453;BME280;68899;52.116;5.404;2024-03-02T07:30:31;100127.63;;;6.68;77.38
79453;BME280;68899;52.116;5.404;2024-03-02T07:32:59;100127.50;;;6.71;78.16
79453;BME280;68899;52.116;5.404;2024-03-02T07:35:27;100142.16;;;6.74;77.43
79453;BME280;68899;52.116;5.404;2024-03-02T07:37:54;100134.31;;;6.74;77.67
79453;BME280;68899;52.116;5.404;2024-03-02T07:40:21;100136.72;;;6.77;77.85
79453;BME280;68899;52.116;5.404;2024-03-02T07:42:48;100139.19;;;6.80;77.77
79453;BME280;68899;52.116;5.404;2024-03-02T07:45:14;100140.69;;;6.84;77.80
79453;BME280;68899;52.116;5.404;2024-03-02T07:47:41;100140.44;;;6.89;78.14
79453;BME280;68899;52.116;5.404;2024-03-02T07:50:08;100142.13;;;6.90;77.87
79453;BME280;68899;52.116;5.404;2024-03-02T07:52:35;100141.38;;;6.88;77.49
79453;BME280;68899;52.116;5.404;2024-03-02T07:55:01;100144.13;;;6.85;77.62
79453;BME280;68899;52.116;5.404;2024-03-02T07:57:28;100147.69;;;6.84;78.07
79453;BME280;68899;52.116;5.404;2024-03-02T07:59:55;100134.72;;;6.82;77.66
79453;BME280;68899;52.116;5.404;2024-03-02T08:02:21;100150.50;;;6.80;77.46
79453;BME280;68899;52.116;5.404;2024-03-02T08:04:48;100148.97;;;6.76;77.61
79453;BME280;68899;52.116;5.404;2024-03-02T08:07:14;100153.34;;;6.76;77.63
79453;BME280;68899;52.116;5.404;2024-03-02T08:09:41;100163.66;;;6.79;77.56
79453;BME280;68899;52.116;5.404;2024-03-02T08:12:07;100156.75;;;6.78;77.88
79453;BME280;68899;52.116;5.404;2024-03-02T08:14:34;100163.72;;;6.77;77.05
79453;BME280;68899;52.116;5.404;2024-03-02T08:17:01;100168.03;;;6.78;77.36
79453;BME280;68899;52.116;5.404;2024-03-02T08:19:28;100165.44;;;6.78;77.03
79453;BME280;68899;52.116;5.404;2024-03-02T08:21:55;100167.94;;;6.80;77.13
79453;BME280;68899;52.116;5.404;2024-03-02T08:24:26;100168.59;;;6.84;77.54
79453;BME280;68899;52.116;5.404;2024-03-02T08:26:52;100162.28;;;6.88;77.22
79453;BME280;68899;52.116;5.404;2024-03-02T08:29:21;100159.88;;;6.99;77.15
79453;BME280;68899;52.116;5.404;2024-03-02T08:31:48;100164.34;;;7.13;76.89
79453;BME280;68899;52.116;5.404;2024-03-02T08:34:15;100156.69;;;7.24;76.68
79453;BME280;68899;52.116;5.404;2024-03-02T08:36:42;100162.13;;;7.35;76.79
79453;BME280;68899;52.116;5.404;2024-03-02T08:39:08;100160.00;;;7.42;75.88
79453;BME280;68899;52.116;5.404;2024-03-02T08:41:43;100157.03;;;7.48;75.93
79453;BME280;68899;52.116;5.404;2024-03-02T08:44:10;100165.44;;;7.53;75.96
79453;BME280;68899;52.116;5.404;2024-03-02T08:46:37;100164.97;;;7.60;75.84
79453;BME280;68899;52.116;5.404;2024-03-02T08:49:03;100166.28;;;7.68;75.52
79453;BME280;68899;52.116;5.404;2024-03-02T08:51:30;100157.31;;;7.72;75.58
79453;BME280;68899;52.116;5.404;2024-03-02T08:53:59;100152.66;;;7.77;75.05
79453;BME280;68899;52.116;5.404;2024-03-02T08:56:25;100156.56;;;7.84;75.55
79453;BME280;68899;52.116;5.404;2024-03-02T08:58:52;100158.91;;;7.88;75.43
79453;BME280;68899;52.116;5.404;2024-03-02T09:01:18;100166.38;;;7.94;75.56
79453;BME280;68899;52.116;5.404;2024-03-02T09:03:49;100153.94;;;7.98;75.05
79453;BME280;68899;52.116;5.404;2024-03-02T09:06:15;100161.41;;;8.04;75.15
79453;BME280;68899;52.116;5.404;2024-03-02T09:08:46;100159.28;;;8.11;74.28
79453;BME280;68899;52.116;5.404;2024-03-02T09:11:14;100167.78;;;8.14;74.35
79453;BME280;68899;52.116;5.404;2024-03-02T09:13:40;100158.91;;;8.17;73.92
79453;BME280;68899;52.116;5.404;2024-03-02T09:16:07;100164.88;;;8.19;73.67
79453;BME280;68899;52.116;5.404;2024-03-02T09:18:34;100160.28;;;8.22;73.05
79453;BME280;68899;52.116;5.404;2024-03-02T09:21:00;100159.16;;;8.27;72.61
79453;BME280;68899;52.116;5.404;2024-03-02T09:23:27;100166.91;;;8.28;72.36
79453;BME280;68899;52.116;5.404;2024-03-02T09:25:54;100166.63;;;8.33;71.84
79453;BME280;68899;52.116;5.404;2024-03-02T09:28:20;100162.16;;;8.35;71.37
79453;BME280;68899;52.116;5.404;2024-03-02T09:30:47;100154.22;;;8.36;71.72
79453;BME280;68899;52.116;5.404;2024-03-02T09:33:13;100166.84;;;8.44;71.35
79453;BME280;68899;52.116;5.404;2024-03-02T09:35:42;100166.63;;;8.47;71.01
79453;BME280;68899;52.116;5.404;2024-03-02T09:38:09;100171.59;;;8.52;71.41
79453;BME280;68899;52.116;5.404;2024-03-02T09:40:35;100175.69;;;8.56;71.03
79453;BME280;68899;52.116;5.404;2024-03-02T09:43:03;100176.31;;;8.59;70.39
79453;BME280;68899;52.116;5.404;2024-03-02T09:45:30;100176.25;;;8.61;70.00
79453;BME280;68899;52.116;5.404;2024-03-02T09:47:58;100175.00;;;8.66;70.06
79453;BME280;68899;52.116;5.404;2024-03-02T09:50:25;100177.44;;;8.69;69.30
79453;BME280;68899;52.116;5.404;2024-03-02T09:52:52;100188.75;;;8.70;68.58
79453;BME280;68899;52.116;5.404;2024-03-02T09:55:19;100183.59;;;8.68;67.93
79453;BME280;68899;52.116;5.404;2024-03-02T09:57:48;100180.91;;;8.70;67.76
79453;BME280;68899;52.116;5.404;2024-03-02T10:00:16;100176.28;;;8.73;67.68
79453;BME280;68899;52.116;5.404;2024-03-02T10:02:43;100182.81;;;8.81;67.70
79453;BME280;68899;52.116;5.404;2024-03-02T10:05:10;100181.78;;;8.83;68.00
79453;BME280;68899;52.116;5.404;2024-03-02T10:07:38;100186.63;;;8.89;67.90
79453;BME280;68899;52.116;5.404;2024-03-02T10:10:14;100177.53;;;8.95;68.04
79453;BME280;68899;52.116;5.404;2024-03-02T10:12:41;100168.50;;;8.99;67.98
79453;BME280;68899;52.116;5.404;2024-03-02T10:15:08;100170.19;;;9.00;67.38
79453;BME280;68899;52.116;5.404;2024-03-02T10:17:36;100177.66;;;9.06;67.25
79453;BME280;68899;52.116;5.404;2024-03-02T10:20:21;100179.13;;;9.10;67.59
79453;BME280;68899;52.116;5.404;2024-03-02T10:22:49;100174.03;;;9.21;67.35
79453;BME280;68899;52.116;5.404;2024-03-02T10:25:32;100178.66;;;9.30;67.81
79453;BME280;68899;52.116;5.404;2024-03-02T10:28:03;100182.97;;;9.31;66.38
79453;BME280;68899;52.116;5.404;2024-03-02T10:30:33;100180.13;;;9.34;66.88
79453;BME280;68899;52.116;5.404;2024-03-02T10:33:01;100185.91;;;9.40;66.44
79453;BME280;68899;52.116;5.404;2024-03-02T10:35:29;100176.03;;;9.43;65.87
79453;BME280;68899;52.116;5.404;2024-03-02T10:38:00;100163.03;;;9.42;65.54
79453;BME280;68899;52.116;5.404;2024-03-02T10:40:27;100175.09;;;9.44;65.49
79453;BME280;68899;52.116;5.404;2024-03-02T10:42:54;100168.28;;;9.42;65.45
79453;BME280;68899;52.116;5.404;2024-03-02T10:45:21;100157.78;;;9.42;65.49
79453;BME280;68899;52.116;5.404;2024-03-02T10:47:49;100156.53;;;9.47;65.02
79453;BME280;68899;52.116;5.404;2024-03-02T10:50:16;100153.47;;;9.53;65.49
79453;BME280;68899;52.116;5.404;2024-03-02T10:52:42;100143.38;;;9.60;65.69
79453;BME280;68899;52.116;5.404;2024-03-02T10:55:09;100148.41;;;9.63;64.72
79453;BME280;68899;52.116;5.404;2024-03-02T10:57:50;100137.72;;;9.66;65.25
79453;BME280;68899;52.116;5.404;2024-03-02T11:00:18;100128.16;;;9.65;64.12
79453;BME280;68899;52.116;5.404;2024-03-02T11:02:51;100134.03;;;9.69;65.17
79453;BME280;68899;52.116;5.404;2024-03-02T11:05:26;100134.25;;;9.78;65.30
79453;BME280;68899;52.116;5.404;2024-03-02T11:08:00;100136.34;;;9.86;65.39
79453;BME280;68899;52.116;5.404;2024-03-02T11:10:34;100135.81;;;9.94;65.19
79453;BME280;68899;52.116;5.404;2024-03-02T11:13:05;100139.38;;;9.93;64.22
79453;BME280;68899;52.116;5.404;2024-03-02T11:15:34;100132.34;;;9.93;63.56
79453;BME280;68899;52.116;5.404;2024-03-02T11:18:03;100138.31;;;9.95;63.46
79453;BME280;68899;52.116;5.404;2024-03-02T11:20:32;100140.00;;;9.96;62.97
79453;BME280;68899;52.116;5.404;2024-03-02T11:23:05;100144.28;;;9.97;62.80
79453;BME280;68899;52.116;5.404;2024-03-02T11:25:34;100143.25;;;9.87;62.87
79453;BME280;68899;52.116;5.404;2024-03-02T11:28:01;100155.88;;;9.95;63.41
79453;BME280;68899;52.116;5.404;2024-03-02T11:33:00;100143.56;;;10.08;61.99
79453;BME280;68899;52.116;5.404;2024-03-02T11:35:30;100144.41;;;10.08;61.97
79453;BME280;68899;52.116;5.404;2024-03-02T11:37:56;100139.66;;;10.13;61.31
79453;BME280;68899;52.116;5.404;2024-03-02T11:40:25;100136.19;;;10.13;60.50
79453;BME280;68899;52.116;5.404;2024-03-02T11:42:52;100133.53;;;10.13;61.26
79453;BME280;68899;52.116;5.404;2024-03-02T11:45:26;100127.88;;;10.19;61.42
79453;BME280;68899;52.116;5.404;2024-03-02T11:47:57;100130.28;;;10.22;61.43
79453;BME280;68899;52.116;5.404;2024-03-02T11:50:40;100133.44;;;10.27;62.16
79453;BME280;68899;52.116;5.404;2024-03-02T11:53:09;100118.16;;;10.32;60.63
79453;BME280;68899;52.116;5.404;2024-03-02T11:55:37;100127.66;;;10.35;59.97
79453;BME280;68899;52.116;5.404;2024-03-02T11:58:06;100118.34;;;10.42;59.81
79453;BME280;68899;52.116;5.404;2024-03-02T12:00:33;100115.00;;;10.40;59.81
79453;BME280;68899;52.116;5.404;2024-03-02T12:05:29;100119.69;;;10.47;59.86
79453;BME280;68899;52.116;5.404;2024-03-02T12:08:04;100108.09;;;10.50;60.25
79453;BME280;68899;52.116;5.404;2024-03-02T12:10:32;100101.69;;;10.54;59.22
79453;BME280;68899;52.116;5.404;2024-03-02T12:13:04;100104.09;;;10.57;59.54
79453;BME280;68899;52.116;5.404;2024-03-02T12:15:35;100099.34;;;10.62;59.01
79453;BME280;68899;52.116;5.404;2024-03-02T12:18:05;100099.53;;;10.59;58.43
79453;BME280;68899;52.116;5.404;2024-03-02T12:20:33;100092.00;;;10.55;58.42
79453;BME280;68899;52.116;5.404;2024-03-02T12:23:02;100094.50;;;10.56;58.74
79453;BME280;68899;52.116;5.404;2024-03-02T12:25:31;100095.59;;;10.54;59.58
79453;BME280;68899;52.116;5.404;2024-03-02T12:28:00;100085.19;;;10.52;60.27
79453;BME280;68899;52.116;5.404;2024-03-02T12:30:35;100090.59;;;10.62;58.84
79453;BME280;68899;52.116;5.404;2024-03-02T12:33:02;100082.59;;;10.63;59.17
79453;BME280;68899;52.116;5.404;2024-03-02T12:35:29;100079.84;;;10.65;58.76
79453;BME280;68899;52.116;5.404;2024-03-02T12:37:56;100083.44;;;10.64;58.43
79453;BME280;68899;52.116;5.404;2024-03-02T12:40:22;100090.50;;;10.63;58.84
79453;BME280;68899;52.116;5.404;2024-03-02T12:42:50;100075.31;;;10.67;58.96
79453;BME280;68899;52.116;5.404;2024-03-02T12:45:17;100075.09;;;10.70;59.37
79453;BME280;68899;52.116;5.404;2024-03-02T12:47:51;100064.56;;;10.70;58.67
79453;BME280;68899;52.116;5.404;2024-03-02T12:50:18;100061.94;;;10.70;59.63
79453;BME280;68899;52.116;5.404;2024-03-02T12:52:51;100061.81;;;10.71;60.04
79453;BME280;68899;52.116;5.404;2024-03-02T12:55:20;100058.13;;;10.74;59.86
79453;BME280;68899;52.116;5.404;2024-03-02T12:57:46;100055.50;;;10.74;60.00
79453;BME280;68899;52.116;5.404;2024-03-02T13:00:18;100043.88;;;10.76;60.16
79453;BME280;68899;52.116;5.404;2024-03-02T13:02:46;100042.97;;;10.78;59.01
79453;BME280;68899;52.116;5.404;2024-03-02T13:05:12;100056.84;;;10.80;59.18
79453;BME280;68899;52.116;5.404;2024-03-02T13:07:39;100053.00;;;10.84;59.67
79453;BME280;68899;52.116;5.404;2024-03-02T13:10:07;100049.31;;;10.86;59.58
79453;BME280;68899;52.116;5.404;2024-03-02T13:12:37;100056.47;;;10.84;59.68
79453;BME280;68899;52.116;5.404;2024-03-02T13:15:04;100050.63;;;10.81;59.48
79453;BME280;68899;52.116;5.404;2024-03-02T13:17:34;100056.00;;;10.79;59.21